createdAt,value
2019-06-07T00:02:18.826Z,9.57
2019-06-07T00:04:48.489Z,10.70
2019-06-07T00:07:21.621Z,7.63
2019-06-07T00:09:49.041Z,12.07
2019-06-07T00:12:21.414Z,12.23
2019-06-07T00:14:49.625Z,10.03
2019-06-07T00:17:20.269Z,8.17
2019-06-07T00:19:50.231Z,12.23
2019-06-07T00:22:32.228Z,8.27
2019-06-07T00:24:51.135Z,9.70
2019-06-07T00:27:22.492Z,13.80
2019-06-07T00:29:51.758Z,11.47
2019-06-07T00:32:21.977Z,8.07
2019-06-07T00:34:51.809Z,11.63
2019-06-07T00:37:25.292Z,11.37
2019-06-07T00:40:12.853Z,9.53
2019-06-07T00:42:24.256Z,10.43
2019-06-07T00:44:54.176Z,12.27
2019-06-07T00:47:25.520Z,10.87
2019-06-07T00:49:54.775Z,11.93
2019-06-07T00:53:11.560Z,7.43
2019-06-07T00:54:55.443Z,11.10
2019-06-07T00:57:25.020Z,10.07
2019-06-07T00:59:54.592Z,8.23
2019-06-07T01:02:28.422Z,10.50
2019-06-07T01:04:55.314Z,12.13
2019-06-07T01:07:24.829Z,9.93
2019-06-07T01:09:54.392Z,12.57
2019-06-07T01:12:26.660Z,12.37
2019-06-07T01:14:54.959Z,11.13
2019-06-07T01:17:41.693Z,8.10
2019-06-07T01:20:00.459Z,10.17
2019-06-07T01:22:29.875Z,9.63
2019-06-07T01:24:59.282Z,10.83
2019-06-07T01:27:28.930Z,8.30
2019-06-07T01:29:58.467Z,9.17
2019-06-07T01:32:31.475Z,9.27
2019-06-07T01:34:59.037Z,10.70
2019-06-07T01:37:30.233Z,10.10
2019-06-07T01:39:59.620Z,9.20
2019-06-07T01:42:30.976Z,9.60
2019-06-07T01:45:00.288Z,6.63
2019-06-07T01:47:32.018Z,9.23
2019-06-07T01:50:00.916Z,11.63
2019-06-07T01:52:30.334Z,11.07
2019-06-07T01:54:59.797Z,8.63
2019-06-07T01:57:44.834Z,11.27
2019-06-07T02:00:00.483Z,11.53
2019-06-07T02:02:31.834Z,8.80
2019-06-07T02:05:01.464Z,11.37
2019-06-07T02:07:33.213Z,13.10
2019-06-07T02:10:02.086Z,13.27
2019-06-07T02:12:40.772Z,11.17
2019-06-07T02:15:03.423Z,11.50
2019-06-07T02:17:33.392Z,14.03
2019-06-07T02:20:03.120Z,9.40
2019-06-07T02:22:32.700Z,7.50
2019-06-07T02:25:37.340Z,9.80
2019-06-07T02:27:33.389Z,9.60
2019-06-07T02:30:35.623Z,13.93
2019-06-07T02:32:36.778Z,15.67
2019-06-07T02:35:07.700Z,9.17
2019-06-07T02:37:37.687Z,11.57
2019-06-07T02:40:09.225Z,13.90
2019-06-07T02:42:42.586Z,10.87
2019-06-07T02:45:11.336Z,12.53
2019-06-07T02:47:41.396Z,10.47
2019-06-07T02:50:12.135Z,13.77
2019-06-07T02:52:42.528Z,8.60
2019-06-07T02:55:14.691Z,10.90
2019-06-07T02:57:44.072Z,8.80
2019-06-07T03:00:58.910Z,11.80
2019-06-07T03:03:05.164Z,9.03
2019-06-07T03:05:38.790Z,11.10
2019-06-07T03:08:05.928Z,12.37
2019-06-07T03:10:39.864Z,10.43
2019-06-07T03:13:10.339Z,13.93
2019-06-07T03:15:49.301Z,10.03
2019-06-07T03:18:29.089Z,9.20
2019-06-07T03:21:05.172Z,8.23
2019-06-07T03:23:32.485Z,12.27
2019-06-07T03:26:06.912Z,11.80
2019-06-07T03:28:37.998Z,12.70
2019-06-07T03:31:07.858Z,7.90
2019-06-07T03:33:42.936Z,7.70
2019-06-07T03:36:23.187Z,14.83
2019-06-07T03:38:40.006Z,11.20
2019-06-07T03:41:09.523Z,9.20
2019-06-07T03:43:40.715Z,8.80
2019-06-07T03:46:10.173Z,12.10
2019-06-07T03:48:41.372Z,10.57
2019-06-07T03:51:24.070Z,14.10
2019-06-07T03:53:41.894Z,10.00
2019-06-07T03:56:12.542Z,10.20
2019-06-07T03:58:49.819Z,10.83
2019-06-07T04:01:13.732Z,12.80
2019-06-07T04:03:51.038Z,13.83
2019-06-07T04:06:14.250Z,12.60
2019-06-07T04:08:44.026Z,13.83
2019-06-07T04:11:13.422Z,13.53
2019-06-07T04:13:43.297Z,15.77
2019-06-07T04:16:12.849Z,11.63
2019-06-07T04:18:42.636Z,10.70
2019-06-07T04:21:12.178Z,13.53
2019-06-07T04:23:45.526Z,9.50
2019-06-07T04:26:12.817Z,10.37
2019-06-07T04:29:30.210Z,11.37
2019-06-07T04:31:13.525Z,11.70
2019-06-07T04:33:43.920Z,13.10
2019-06-07T04:36:13.956Z,12.17
2019-06-07T04:38:44.409Z,12.20
2019-06-07T04:41:15.430Z,15.27
2019-06-07T04:43:45.963Z,12.63
2019-06-07T04:46:16.676Z,12.17
2019-06-07T04:48:47.024Z,11.87
2019-06-07T04:51:17.349Z,11.63
2019-06-07T04:53:46.830Z,11.27
2019-06-07T04:56:16.331Z,13.20
2019-06-07T04:58:45.805Z,13.23
2019-06-07T05:01:26.664Z,12.27
2019-06-07T05:03:46.528Z,9.37
2019-06-07T05:06:15.928Z,10.77
2019-06-07T05:08:45.847Z,9.80
2019-06-07T05:11:15.270Z,11.87
2019-06-07T05:13:44.702Z,11.93
2019-06-07T05:16:14.108Z,13.33
2019-06-07T05:18:43.592Z,14.50
2019-06-07T05:21:13.535Z,16.03
2019-06-07T05:24:05.363Z,11.53
2019-06-07T05:26:14.177Z,12.47
2019-06-07T05:28:43.592Z,10.17
2019-06-07T05:31:13.098Z,8.93
2019-06-07T05:33:43.534Z,7.93
2019-06-07T05:36:13.125Z,11.37
2019-06-07T05:38:44.999Z,11.57
2019-06-07T05:41:14.648Z,8.27
2019-06-07T05:43:49.815Z,9.10
2019-06-07T05:46:15.222Z,8.10
2019-06-07T05:48:44.629Z,7.00
2019-06-07T05:51:14.067Z,10.43
2019-06-07T05:53:45.971Z,7.47
2019-06-07T05:56:15.515Z,9.43
2019-06-07T05:58:45.160Z,7.57
2019-06-07T06:01:42.171Z,9.70
2019-06-07T06:03:48.263Z,7.00
2019-06-07T06:06:17.845Z,6.47
2019-06-07T06:08:47.774Z,10.00
2019-06-07T06:11:18.653Z,7.17
2019-06-07T06:14:05.256Z,8.33
2019-06-07T06:16:19.232Z,10.03
2019-06-07T06:18:49.196Z,10.93
2019-06-07T06:21:20.426Z,11.70
2019-06-07T06:23:51.974Z,8.57
2019-06-07T06:26:21.277Z,11.17
2019-06-07T06:28:50.979Z,8.97
2019-06-07T06:31:20.411Z,8.77
2019-06-07T06:33:50.275Z,8.87
2019-06-07T06:36:20.393Z,7.20
2019-06-07T06:38:51.541Z,5.60
2019-06-07T06:41:21.270Z,6.40
2019-06-07T06:43:52.651Z,6.70
2019-06-07T06:46:37.981Z,7.87
2019-06-07T06:48:55.112Z,9.53
2019-06-07T06:51:24.121Z,6.00
2019-06-07T06:53:53.520Z,5.13
2019-06-07T06:56:24.453Z,6.23
2019-06-07T06:59:35.072Z,6.60
2019-06-07T07:01:25.310Z,6.20
2019-06-07T07:04:11.280Z,9.63
2019-06-07T07:06:27.137Z,5.57
2019-06-07T07:08:57.705Z,5.10
2019-06-07T07:11:27.129Z,6.03
2019-06-07T07:13:57.420Z,4.07
2019-06-07T07:16:26.904Z,6.43
2019-06-07T07:18:56.292Z,8.27
2019-06-07T07:21:25.718Z,5.20
2019-06-07T07:24:19.723Z,4.87
2019-06-07T07:26:26.250Z,5.73
2019-06-07T07:28:57.811Z,4.33
2019-06-07T07:31:27.059Z,4.97
2019-06-07T07:34:30.888Z,8.17
2019-06-07T07:36:38.864Z,7.87
2019-06-07T07:39:04.546Z,7.77
2019-06-07T07:41:29.946Z,4.53
2019-06-07T07:44:05.970Z,6.40
2019-06-07T07:46:31.084Z,6.13
2019-06-07T07:49:00.456Z,5.33
2019-06-07T07:51:29.945Z,4.60
2019-06-07T07:54:10.264Z,7.80
2019-06-07T07:56:30.485Z,5.97
2019-06-07T07:59:01.782Z,5.53
2019-06-07T08:01:31.039Z,4.93
2019-06-07T08:04:00.473Z,5.83
2019-06-07T08:06:30.199Z,4.53
2019-06-07T08:08:59.608Z,7.90
2019-06-07T08:11:29.075Z,4.47
2019-06-07T08:13:58.940Z,6.97
2019-06-07T08:16:28.388Z,5.53
2019-06-07T08:19:03.618Z,5.23
2019-06-07T08:21:29.147Z,4.90
2019-06-07T08:24:03.696Z,6.30
2019-06-07T08:26:29.705Z,8.97
2019-06-07T08:29:02.673Z,2.67
2019-06-07T08:31:30.250Z,5.80
2019-06-07T08:34:00.833Z,6.33
2019-06-07T08:36:41.406Z,7.30
2019-06-07T08:39:07.290Z,7.33
2019-06-07T08:41:33.172Z,4.43
2019-06-07T08:44:22.221Z,6.50
2019-06-07T08:46:33.725Z,4.73
2019-06-07T08:49:04.747Z,6.07
2019-06-07T08:51:34.535Z,6.03
2019-06-07T08:54:21.657Z,3.97
2019-06-07T08:56:35.308Z,5.13
2019-06-07T08:59:11.102Z,5.50
2019-06-07T09:01:36.333Z,5.50
2019-06-07T09:04:09.946Z,6.70
2019-06-07T09:09:09.636Z,5.67
2019-06-07T09:11:39.048Z,6.07
2019-06-07T09:14:09.381Z,7.03
2019-06-07T09:16:38.952Z,8.03
2019-06-07T09:19:10.978Z,4.53
2019-06-07T09:21:39.497Z,7.17
2019-06-07T09:24:11.563Z,7.43
2019-06-07T09:26:40.467Z,5.10
2019-06-07T09:29:11.896Z,7.47
2019-06-07T09:31:52.889Z,8.07
2019-06-07T09:34:15.088Z,5.90
2019-06-07T09:36:43.883Z,4.53
2019-06-07T09:39:13.447Z,6.33
2019-06-07T09:41:49.309Z,6.63
2019-06-07T09:44:24.112Z,7.80
2019-06-07T09:46:45.587Z,6.07
2019-06-07T09:49:29.006Z,5.93
2019-06-07T09:51:46.419Z,7.33
2019-06-07T09:55:02.611Z,5.80
2019-06-07T09:56:46.972Z,4.63
2019-06-07T09:59:16.447Z,6.63
2019-06-07T10:01:45.971Z,4.53
2019-06-07T10:04:28.527Z,6.27
2019-06-07T10:06:46.527Z,4.83
2019-06-07T10:11:47.142Z,7.07
2019-06-07T10:14:16.578Z,7.60
2019-06-07T10:16:47.469Z,5.63
2019-06-07T10:19:17.216Z,6.27
2019-06-07T10:21:46.631Z,4.73
2019-06-07T10:24:16.175Z,7.53
2019-06-07T10:26:45.586Z,5.33
2019-06-07T10:29:14.991Z,6.77
2019-06-07T10:31:44.410Z,3.77
2019-06-07T10:34:13.918Z,5.07
2019-06-07T10:36:43.714Z,6.43
2019-06-07T10:39:13.178Z,8.10
2019-06-07T10:41:42.584Z,10.17
2019-06-07T10:44:12.283Z,7.13
2019-06-07T10:46:41.713Z,6.03
2019-06-07T10:49:12.220Z,7.67
2019-06-07T10:51:41.778Z,6.63
2019-06-07T10:54:24.850Z,4.43
2019-06-07T10:56:42.347Z,3.77
2019-06-07T10:59:11.995Z,3.00
2019-06-07T11:01:42.684Z,6.40
2019-06-07T11:04:12.152Z,5.47
2019-06-07T11:06:41.672Z,5.57
2019-06-07T11:09:12.046Z,8.40
2019-06-07T11:11:41.631Z,7.40
2019-06-07T11:14:11.067Z,4.10
2019-06-07T11:16:41.854Z,6.47
2019-06-07T11:19:14.462Z,5.43
2019-06-07T11:21:42.409Z,3.70
2019-06-07T11:24:12.384Z,4.33
2019-06-07T11:26:41.900Z,5.67
2019-06-07T11:29:12.740Z,6.57
2019-06-07T11:31:42.337Z,6.63
2019-06-07T11:34:12.496Z,5.80
2019-06-07T11:36:42.059Z,6.37
2019-06-07T11:39:12.753Z,3.40
2019-06-07T11:41:42.242Z,6.13
2019-06-07T11:44:12.878Z,6.07
2019-06-07T11:46:42.457Z,5.80
2019-06-07T11:49:13.117Z,5.70
2019-06-07T11:51:42.987Z,4.50
2019-06-07T11:54:13.895Z,5.23
2019-06-07T11:56:43.692Z,6.43
2019-06-07T11:59:13.409Z,6.27
2019-06-07T12:01:42.891Z,4.47
2019-06-07T12:04:13.924Z,6.17
2019-06-07T12:06:43.636Z,6.77
2019-06-07T12:09:14.392Z,2.70
2019-06-07T12:11:43.972Z,5.77
2019-06-07T12:14:14.608Z,5.07
2019-06-07T12:16:44.309Z,3.93
2019-06-07T12:19:13.719Z,4.33
2019-06-07T12:21:43.207Z,4.37
2019-06-07T12:24:14.090Z,5.93
2019-06-07T12:26:43.648Z,3.60
2019-06-07T12:29:13.084Z,4.00
2019-06-07T12:31:42.915Z,4.40
2019-06-07T12:34:13.301Z,6.80
2019-06-07T12:36:42.894Z,7.30
2019-06-07T12:39:13.815Z,4.77
2019-06-07T12:41:43.448Z,3.97
2019-06-07T12:44:12.899Z,10.07
2019-06-07T12:46:42.349Z,7.30
2019-06-07T12:49:12.913Z,6.60
2019-06-07T12:51:42.434Z,9.03
2019-06-07T12:54:11.831Z,8.13
2019-06-07T12:56:41.270Z,10.10
2019-06-07T12:59:10.674Z,11.77
2019-06-07T13:01:40.142Z,5.43
2019-06-07T13:04:09.650Z,14.07
2019-06-07T13:06:39.088Z,11.47
2019-06-07T13:09:10.197Z,13.47
2019-06-07T13:11:39.612Z,11.73
2019-06-07T13:14:09.073Z,15.70
2019-06-07T13:16:38.497Z,9.67
2019-06-07T13:19:07.896Z,5.40
2019-06-07T13:21:38.924Z,5.90
2019-06-07T13:24:08.342Z,10.20
2019-06-07T13:26:37.792Z,6.87
2019-06-07T13:29:07.390Z,5.60
2019-06-07T13:31:36.792Z,5.13
2019-06-07T13:34:06.309Z,6.30
2019-06-07T13:36:35.830Z,2.60
2019-06-07T13:39:07.680Z,2.97
2019-06-07T13:41:42.809Z,3.17
2019-06-07T13:44:08.203Z,3.10
2019-06-07T13:46:37.985Z,2.73
2019-06-07T13:49:07.451Z,3.50
2019-06-07T13:51:36.886Z,2.50
2019-06-07T13:54:06.437Z,3.30
2019-06-07T13:56:59.754Z,2.70
2019-06-07T13:59:10.114Z,2.80
2019-06-07T14:01:39.584Z,2.47
2019-06-07T14:04:09.081Z,3.83
2019-06-07T14:06:38.485Z,2.90
2019-06-07T14:09:08.741Z,2.00
2019-06-07T14:11:50.050Z,1.50
2019-06-07T14:14:09.374Z,2.03
2019-06-07T14:16:38.814Z,4.33
2019-06-07T14:19:08.261Z,2.90
2019-06-07T14:21:37.728Z,4.30
2019-06-07T14:24:07.279Z,2.13
2019-06-07T14:26:36.692Z,4.90
2019-06-07T14:29:06.685Z,3.10
2019-06-07T14:31:36.172Z,1.87
2019-06-07T14:34:07.319Z,1.30
2019-06-07T14:36:36.860Z,1.70
2019-06-07T14:39:08.089Z,3.10
2019-06-07T14:41:37.659Z,1.77
2019-06-07T14:44:07.146Z,2.73
2019-06-07T14:46:36.695Z,1.83
2019-06-07T14:49:06.449Z,3.13
2019-06-07T14:51:36.142Z,4.77
2019-06-07T14:54:05.805Z,2.77
2019-06-07T14:56:35.420Z,5.33
2019-06-07T14:59:05.061Z,2.70
2019-06-07T15:01:35.640Z,4.10
2019-06-07T15:04:05.698Z,2.13
2019-06-07T15:06:35.121Z,3.43
2019-06-07T15:09:07.266Z,1.83
2019-06-07T15:11:36.652Z,1.87
2019-06-07T15:14:06.406Z,2.27
2019-06-07T15:16:35.941Z,3.23
2019-06-07T15:19:05.444Z,4.00
2019-06-07T15:21:35.160Z,1.87
2019-06-07T15:24:04.901Z,3.67
2019-06-07T15:26:34.624Z,1.70
2019-06-07T15:29:04.387Z,2.30
2019-06-07T15:31:34.581Z,1.97
2019-06-07T15:34:05.128Z,3.83
2019-06-07T15:36:34.531Z,2.97
2019-06-07T15:39:07.118Z,2.77
2019-06-07T15:41:37.335Z,6.90
2019-06-07T15:44:07.036Z,1.60
2019-06-07T15:46:37.974Z,6.50
2019-06-07T15:49:07.776Z,2.80
2019-06-07T15:51:38.534Z,4.47
2019-06-07T15:54:08.190Z,1.97
2019-06-07T15:56:39.008Z,3.83
2019-06-07T15:59:08.592Z,3.03
2019-06-07T16:01:39.429Z,2.77
2019-06-07T16:04:09.354Z,2.50
2019-06-07T16:06:40.405Z,3.87
2019-06-07T16:09:10.093Z,2.33
2019-06-07T16:11:41.180Z,3.10
2019-06-07T16:14:11.087Z,3.30
2019-06-07T16:16:41.398Z,3.17
2019-06-07T16:19:10.887Z,2.13
2019-06-07T16:21:41.496Z,1.97
2019-06-07T16:24:11.391Z,3.67
2019-06-07T16:26:44.554Z,3.90
2019-06-07T16:29:14.305Z,2.23
2019-06-07T16:31:44.928Z,4.90
2019-06-07T16:34:14.602Z,4.37
2019-06-07T16:36:44.555Z,3.00
2019-06-07T16:39:14.176Z,7.03
2019-06-07T16:41:44.906Z,3.93
2019-06-07T16:44:14.483Z,7.30
2019-06-07T16:46:45.072Z,2.17
2019-06-07T16:49:14.766Z,4.90
2019-06-07T16:51:45.408Z,4.97
2019-06-07T16:54:14.866Z,4.07
2019-06-07T16:56:48.082Z,6.30
2019-06-07T16:59:16.193Z,3.93
2019-06-07T17:01:45.690Z,7.33
2019-06-07T17:04:15.138Z,2.97
2019-06-07T17:06:46.419Z,4.60
2019-06-07T17:09:16.059Z,4.33
2019-06-07T17:11:46.413Z,1.90
2019-06-07T17:14:16.074Z,4.53
2019-06-07T17:16:46.136Z,7.37
2019-06-07T17:19:16.736Z,5.53
2019-06-07T17:21:47.397Z,2.33
2019-06-07T17:24:17.052Z,2.37
2019-06-07T17:26:47.667Z,4.87
2019-06-07T17:29:17.150Z,4.30
2019-06-07T17:31:46.573Z,3.50
2019-06-07T17:34:15.975Z,7.27
2019-06-07T17:36:46.426Z,3.17
2019-06-07T17:39:15.983Z,4.87
2019-06-07T17:41:54.846Z,5.60
2019-06-07T17:44:21.891Z,3.83
2019-06-07T17:46:51.791Z,3.73
2019-06-07T17:49:21.409Z,2.80
2019-06-07T17:51:52.222Z,3.70
2019-06-07T17:54:22.112Z,2.43
2019-06-07T17:56:53.201Z,6.50
2019-06-07T17:59:22.812Z,4.33
2019-06-07T18:02:13.497Z,2.73
2019-06-07T18:04:23.453Z,2.30
2019-06-07T18:06:54.319Z,5.77
2019-06-07T18:09:25.657Z,4.67
2019-06-07T18:11:55.090Z,4.33
2019-06-07T18:14:24.899Z,4.40
2019-06-07T18:16:54.859Z,4.57
2019-06-07T18:19:24.507Z,6.33
2019-06-07T18:21:57.563Z,3.30
2019-06-07T18:24:25.467Z,4.27
2019-06-07T18:26:54.890Z,4.57
2019-06-07T18:29:24.343Z,8.20
2019-06-07T18:31:55.103Z,4.90
2019-06-07T18:34:24.623Z,6.93
2019-06-07T18:36:55.222Z,6.20
2019-06-07T18:39:25.046Z,3.13
2019-06-07T18:41:55.424Z,5.47
2019-06-07T18:44:24.959Z,7.40
2019-06-07T18:46:54.603Z,3.90
2019-06-07T18:49:24.043Z,6.20
2019-06-07T18:52:12.873Z,6.90
2019-06-07T18:54:42.340Z,4.70
2019-06-07T18:57:12.458Z,4.43
2019-06-07T18:59:42.062Z,6.90
2019-06-07T19:02:11.485Z,2.97
2019-06-07T19:04:40.882Z,3.30
2019-06-07T19:07:10.326Z,5.90
2019-06-07T19:09:39.789Z,5.73
2019-06-07T19:12:09.219Z,3.63
2019-06-07T19:14:38.610Z,8.13
2019-06-07T19:17:08.014Z,5.73
2019-06-07T19:19:37.549Z,8.23
2019-06-07T19:22:07.034Z,7.93
2019-06-07T19:24:36.767Z,3.23
2019-06-07T19:27:06.306Z,5.40
2019-06-07T19:29:35.744Z,4.17
2019-06-07T19:32:05.207Z,6.90
2019-06-07T19:34:34.626Z,6.37
2019-06-07T19:37:04.065Z,3.73
2019-06-07T19:39:33.465Z,4.17
2019-06-07T19:42:02.999Z,5.03
2019-06-07T19:44:32.411Z,7.53
2019-06-07T19:47:02.721Z,5.20
2019-06-07T19:49:32.508Z,4.23
2019-06-07T19:52:03.171Z,4.97
2019-06-07T19:54:32.838Z,4.63
2019-06-07T19:57:03.680Z,3.27
2019-06-07T19:59:33.207Z,4.47
2019-06-07T20:02:04.087Z,7.70
2019-06-07T20:04:33.551Z,6.50
2019-06-07T20:07:03.917Z,7.13
2019-06-07T20:09:34.488Z,9.63
2019-06-07T20:12:04.751Z,6.47
2019-06-07T20:14:34.363Z,6.60
2019-06-07T20:17:05.475Z,4.93
2019-06-07T20:19:35.144Z,7.50
2019-06-07T20:22:05.523Z,3.97
2019-06-07T20:24:37.934Z,5.23
2019-06-07T20:27:06.198Z,4.10
2019-06-07T20:29:35.596Z,7.00
2019-06-07T20:32:05.133Z,4.10
2019-06-07T20:34:34.550Z,7.73
2019-06-07T20:37:05.991Z,3.07
2019-06-07T20:39:35.164Z,6.80
2019-06-07T20:42:05.895Z,5.30
2019-06-07T20:44:35.525Z,7.97
2019-06-07T20:47:06.263Z,4.60
2019-06-07T20:49:35.797Z,2.27
2019-06-07T20:52:06.606Z,6.57
2019-06-07T20:54:36.535Z,5.17
2019-06-07T20:57:06.776Z,4.40
2019-06-07T20:59:36.307Z,4.93
2019-06-07T21:02:07.243Z,6.90
2019-06-07T21:04:36.708Z,10.43
2019-06-07T21:07:08.006Z,4.87
2019-06-07T21:09:37.300Z,2.37
2019-06-07T21:12:07.905Z,6.50
2019-06-07T21:14:37.681Z,5.27
2019-06-07T21:17:08.245Z,5.57
2019-06-07T21:19:37.714Z,2.80
2019-06-07T21:22:07.200Z,5.47
2019-06-07T21:24:36.599Z,6.77
2019-06-07T21:27:07.420Z,3.77
2019-06-07T21:29:36.925Z,7.03
2019-06-07T21:32:07.545Z,4.17
2019-06-07T21:34:37.116Z,7.40
2019-06-07T21:37:07.805Z,5.13
2019-06-07T21:39:37.426Z,4.73
2019-06-07T21:42:08.085Z,5.27
2019-06-07T21:44:37.626Z,3.13
2019-06-07T21:47:07.052Z,3.57
2019-06-07T21:49:36.444Z,7.33
2019-06-07T21:52:06.509Z,7.17
2019-06-07T21:54:35.935Z,5.17
2019-06-07T21:57:06.848Z,5.20
2019-06-07T21:59:36.339Z,8.83
2019-06-07T22:02:07.447Z,4.27
2019-06-07T22:04:37.099Z,6.17
2019-06-07T22:07:07.871Z,4.17
2019-06-07T22:09:37.433Z,6.30
2019-06-07T22:12:07.993Z,10.57
2019-06-07T22:14:37.537Z,7.50
2019-06-07T22:17:08.173Z,9.63
2019-06-07T22:19:37.756Z,7.73
2019-06-07T22:22:08.896Z,7.73
2019-06-07T22:24:38.816Z,6.30
2019-06-07T22:27:09.144Z,7.43
2019-06-07T22:29:38.620Z,4.93
2019-06-07T22:32:08.773Z,6.90
2019-06-07T22:34:38.711Z,8.37
2019-06-07T22:37:09.259Z,8.83
2019-06-07T22:39:38.828Z,6.17
2019-06-07T22:42:08.826Z,11.97
2019-06-07T22:44:40.149Z,15.20
2019-06-07T22:47:10.106Z,8.50
2019-06-07T22:49:39.798Z,7.93
2019-06-07T22:52:12.574Z,11.67
2019-06-07T22:54:40.332Z,11.57
2019-06-07T22:57:18.303Z,12.77
2019-06-07T22:59:47.927Z,8.93
2019-06-07T23:02:18.790Z,8.20
2019-06-07T23:04:48.342Z,14.10
2019-06-07T23:07:19.088Z,9.27
2019-06-07T23:09:48.571Z,5.07
2019-06-07T23:12:19.447Z,11.90
2019-06-07T23:14:49.071Z,6.80
2019-06-07T23:17:20.357Z,13.70
2019-06-07T23:19:49.649Z,13.17
2019-06-07T23:22:20.156Z,7.37
2019-06-07T23:24:49.799Z,15.10
2019-06-07T23:27:20.656Z,12.07
2019-06-07T23:29:50.219Z,8.67
2019-06-07T23:32:20.241Z,9.13
2019-06-07T23:34:50.845Z,17.40
2019-06-07T23:37:21.307Z,11.00
2019-06-07T23:39:50.920Z,7.23
2019-06-07T23:42:21.724Z,11.30
2019-06-07T23:44:51.482Z,9.90
2019-06-07T23:47:22.342Z,12.00
2019-06-07T23:49:51.958Z,10.40
2019-06-07T23:52:22.113Z,8.17
2019-06-07T23:54:51.666Z,7.87
2019-06-07T23:57:22.556Z,9.47
2019-06-07T23:59:52.196Z,6.37
